Time;durP1;ratioP1;P1;durP2;ratioP2;P2;SDS_P1;SDS_P2;PMS_P1;PMS_P2;Temp;Humidity;BMP_temperature;BMP_pressure;BME280_temperature;BME280_humidity;BME280_pressure;Samples;Min_cycle;Max_cycle;Signal;HPM_P1;HPM_P2
2022/05/17 00:01:33;;;;;;;40.50;29.77;;;;;;;15.80;90.18;100704.66;5110234;28;20516;-62
2022/05/17 00:04:01;;;;;;;35.27;27.87;;;;;;;15.82;90.12;100697.25;5099810;28;20446;-62
2022/05/17 00:06:29;;;;;;;35.10;26.10;;;;;;;15.74;90.06;100709.81;5099285;28;20478;-63
2022/05/17 00:08:57;;;;;;;35.07;26.80;;;;;;;15.78;89.95;100704.00;5098693;28;20471;-63
2022/05/17 00:11:24;;;;;;;34.80;28.60;;;;;;;15.77;89.27;100710.38;5106093;28;20498;-63
2022/05/17 00:13:51;;;;;;;29.70;24.30;;;;;;;15.74;89.39;100699.03;5105784;28;21016;-63
2022/05/17 00:16:18;;;;;;;31.20;24.83;;;;;;;15.75;89.12;100707.00;5098467;28;20486;-63
2022/05/17 00:18:48;;;;;;;28.87;23.90;;;;;;;15.75;88.81;100701.63;5115869;28;20446;-63
2022/05/17 00:21:16;;;;;;;33.90;24.10;;;;;;;15.66;88.85;100704.41;5105363;28;20505;-63
2022/05/17 00:23:43;;;;;;;36.47;24.50;;;;;;;15.67;88.76;100701.53;5120532;28;20446;-63
2022/05/17 00:26:10;;;;;;;43.10;24.33;;;;;;;15.51;89.02;100704.19;5116774;28;20489;-63
2022/05/17 00:28:38;;;;;;;29.50;23.80;;;;;;;15.64;89.52;100704.59;5109449;28;20439;-63
2022/05/17 00:31:06;;;;;;;30.03;24.80;;;;;;;15.59;88.94;100702.38;5104098;28;20501;-63
2022/05/17 00:33:33;;;;;;;30.23;23.30;;;;;;;15.62;88.80;100701.19;5119603;28;20479;-63
2022/05/17 00:36:00;;;;;;;33.33;24.03;;;;;;;15.65;89.00;100703.56;5118136;28;20470;-63
2022/05/17 00:38:28;;;;;;;31.30;24.40;;;;;;;15.59;88.79;100699.66;5118325;28;20442;-63
2022/05/17 00:40:55;;;;;;;29.70;23.53;;;;;;;15.62;88.88;100703.88;5099825;28;20478;-63
2022/05/17 00:43:29;;;;;;;32.80;23.07;;;;;;;15.65;88.95;100706.25;5119330;28;20438;-63
2022/05/17 00:45:57;;;;;;;31.07;25.50;;;;;;;15.60;89.88;100704.03;5092127;28;20847;-63
2022/05/17 00:48:24;;;;;;;30.13;24.20;;;;;;;15.66;89.89;100709.78;5103190;28;20457;-63
2022/05/17 00:50:52;;;;;;;33.20;24.10;;;;;;;15.72;89.86;100709.16;5118677;28;20473;-63
2022/05/17 00:53:22;;;;;;;32.60;25.47;;;;;;;15.74;90.08;100705.28;5119588;28;20450;-63
2022/05/17 00:55:53;;;;;;;32.83;27.17;;;;;;;15.75;90.10;100707.00;5083601;28;20478;-63
2022/05/17 00:58:23;;;;;;;33.70;25.37;;;;;;;15.67;90.51;100701.53;5106013;28;20434;-63
2022/05/17 01:00:52;;;;;;;30.70;23.63;;;;;;;15.80;90.33;100696.56;5098991;28;20979;-63
2022/05/17 01:03:21;;;;;;;32.40;25.20;;;;;;;15.74;90.05;100696.34;5098407;28;21032;-63
2022/05/17 01:05:53;;;;;;;30.10;23.13;;;;;;;15.75;90.18;100690.00;5117082;27;20466;-63
2022/05/17 01:08:21;;;;;;;33.03;24.07;;;;;;;15.78;90.13;100698.59;5098827;28;20446;-63
2022/05/17 01:10:49;;;;;;;30.10;23.50;;;;;;;15.73;90.55;100691.97;5088938;28;20528;-63
2022/05/17 01:16:00;;;;;;;28.83;23.60;;;;;;;15.67;90.54;100695.31;5119800;27;20515;-63
2022/05/17 01:18:31;;;;;;;27.73;23.00;;;;;;;15.68;90.55;100687.06;5119643;28;20480;-63
2022/05/17 01:20:59;;;;;;;30.63;23.17;;;;;;;15.73;89.89;100686.59;5110374;28;20473;-64
2022/05/17 01:23:26;;;;;;;31.83;21.60;;;;;;;15.63;89.65;100678.63;5121140;28;20824;-63
2022/05/17 01:25:53;;;;;;;29.57;23.47;;;;;;;15.66;89.51;100674.75;5101447;28;20900;-64
2022/05/17 01:28:22;;;;;;;28.30;23.10;;;;;;;15.55;90.25;100678.59;5116798;28;20477;-63
2022/05/17 01:30:49;;;;;;;30.93;21.87;;;;;;;15.53;90.26;100686.00;5103161;28;20486;-63
2022/05/17 01:33:17;;;;;;;34.03;22.33;;;;;;;15.41;90.61;100680.03;5112499;28;20508;-64
2022/05/17 01:35:43;;;;;;;31.53;21.20;;;;;;;15.39;91.05;100679.38;5101868;28;20473;-63
2022/05/17 01:38:12;;;;;;;29.20;21.03;;;;;;;15.43;90.74;100669.94;5102232;28;20459;-63
2022/05/17 01:40:39;;;;;;;28.37;21.87;;;;;;;15.39;90.47;100676.69;5103078;28;20466;-64
2022/05/17 01:43:06;;;;;;;28.73;20.43;;;;;;;15.40;90.51;100676.50;5105333;28;20457;-64
2022/05/17 01:45:33;;;;;;;26.87;20.27;;;;;;;15.38;90.68;100677.66;5101110;28;20462;-64
2022/05/17 01:48:00;;;;;;;26.13;20.00;;;;;;;15.37;89.95;100679.53;5104865;28;20486;-64
2022/05/17 01:50:27;;;;;;;32.33;21.77;;;;;;;15.32;90.20;100691.81;5117814;28;20462;-64
2022/05/17 01:52:53;;;;;;;29.97;19.30;;;;;;;15.34;89.83;100684.41;5121890;28;20454;-64
2022/05/17 01:55:21;;;;;;;24.17;17.43;;;;;;;15.33;90.11;100682.69;5118027;28;20485;-64
2022/05/17 01:57:48;;;;;;;27.33;19.50;;;;;;;15.33;89.48;100674.63;5103429;28;20447;-64
2022/05/17 02:00:17;;;;;;;24.83;18.73;;;;;;;15.31;89.51;100673.94;5115853;28;20478;-64
2022/05/17 02:02:44;;;;;;;25.57;18.00;;;;;;;15.33;89.33;100680.00;5118011;28;20454;-64
2022/05/17 02:05:11;;;;;;;28.67;18.30;;;;;;;15.24;89.77;100681.81;5120918;28;20430;-64
2022/05/17 02:07:38;;;;;;;24.13;18.70;;;;;;;15.13;90.01;100679.41;5122194;28;20752;-64
2022/05/17 02:10:07;;;;;;;26.47;18.47;;;;;;;15.14;90.07;100689.19;5102218;28;20865;-64
2022/05/17 02:12:36;;;;;;;22.40;18.17;;;;;;;15.07;90.37;100679.03;5122085;28;20446;-64
2022/05/17 02:15:03;;;;;;;25.00;18.33;;;;;;;15.13;90.16;100682.09;5119594;28;20434;-63
2022/05/17 02:17:30;;;;;;;21.80;16.90;;;;;;;15.15;89.90;100686.31;5103776;28;20478;-64
2022/05/17 02:19:56;;;;;;;21.10;17.23;;;;;;;15.17;89.76;100680.75;5112264;28;20435;-64
2022/05/17 02:22:23;;;;;;;26.63;18.90;;;;;;;15.03;89.84;100682.19;5111036;28;20535;-63
2022/05/17 02:24:50;;;;;;;23.37;18.00;;;;;;;15.06;89.66;100688.09;5121408;28;20480;-63
2022/05/17 02:27:17;;;;;;;26.33;19.80;;;;;;;15.13;89.70;100690.19;5116660;28;20478;-63
2022/05/17 02:29:45;;;;;;;27.10;18.37;;;;;;;15.12;89.41;100683.09;5122040;28;20852;-63
2022/05/17 02:32:12;;;;;;;22.43;18.30;;;;;;;15.06;89.24;100687.28;5101500;28;20475;-63
2022/05/17 02:34:39;;;;;;;22.70;18.17;;;;;;;14.98;89.78;100693.47;5101912;28;20466;-63
2022/05/17 02:37:06;;;;;;;36.20;19.37;;;;;;;14.91;89.70;100697.78;5110252;28;20513;-64
2022/05/17 02:39:34;;;;;;;29.33;18.10;;;;;;;14.96;89.92;100706.22;5121608;28;20445;-64
2022/05/17 02:42:00;;;;;;;25.43;17.07;;;;;;;14.97;89.63;100697.16;5119401;28;20482;-64
2022/05/17 02:44:28;;;;;;;26.77;18.00;;;;;;;14.93;89.53;100697.63;5120095;28;20438;-65
2022/05/17 02:46:57;;;;;;;25.90;18.60;;;;;;;14.96;89.35;100700.84;5101885;28;20500;-62
2022/05/17 02:49:23;;;;;;;29.90;18.87;;;;;;;14.87;89.77;100705.31;5117128;28;20442;-64
2022/05/17 02:51:50;;;;;;;23.60;16.90;;;;;;;14.83;90.10;100701.25;5115845;28;20953;-62
2022/05/17 02:54:17;;;;;;;24.73;16.87;;;;;;;14.94;89.81;100696.63;5100824;28;20455;-62
2022/05/17 02:56:44;;;;;;;25.87;18.87;;;;;;;14.90;89.12;100700.66;5103292;28;20474;-62
2022/05/17 02:59:12;;;;;;;29.20;19.30;;;;;;;14.80;89.62;100706.13;5100470;28;20459;-62
2022/05/17 03:01:39;;;;;;;31.47;20.03;;;;;;;14.82;89.47;100704.09;5111576;28;20489;-62
2022/05/17 03:04:07;;;;;;;25.27;17.77;;;;;;;14.87;89.40;100699.09;5109086;28;20472;-62
2022/05/17 03:06:33;;;;;;;25.97;18.10;;;;;;;14.78;89.68;100702.75;5114277;28;20483;-63
2022/05/17 03:09:00;;;;;;;23.43;18.20;;;;;;;14.74;90.24;100701.34;5100455;28;20719;-61
2022/05/17 03:11:27;;;;;;;30.17;19.40;;;;;;;14.85;89.64;100711.88;5107766;28;20560;-62
2022/05/17 03:13:54;;;;;;;30.30;19.40;;;;;;;14.90;89.68;100706.88;5114502;28;20885;-62
2022/05/17 03:16:20;;;;;;;27.37;20.57;;;;;;;14.76;89.47;100702.91;5119498;28;20481;-63
2022/05/17 03:18:47;;;;;;;32.57;20.90;;;;;;;14.87;89.44;100699.09;5118270;28;20476;-63
2022/05/17 03:21:15;;;;;;;28.70;22.47;;;;;;;14.90;89.38;100708.72;5101882;28;20475;-62
2022/05/17 03:23:42;;;;;;;28.40;20.87;;;;;;;14.92;89.18;100707.56;5100392;28;20504;-62
2022/05/17 03:26:10;;;;;;;29.60;22.80;;;;;;;14.86;88.83;100710.88;5105112;28;20484;-62
2022/05/17 03:28:37;;;;;;;29.10;19.70;;;;;;;14.80;89.14;100715.03;5121118;28;20430;-62
2022/05/17 03:31:07;;;;;;;34.17;22.90;;;;;;;14.87;90.00;100720.63;5116020;28;20470;-63
2022/05/17 03:33:34;;;;;;;31.27;22.40;;;;;;;14.90;89.54;100716.81;5110466;28;20454;-62
2022/05/17 03:36:01;;;;;;;33.17;23.83;;;;;;;14.93;90.07;100724.53;5104480;28;20465;-63
2022/05/17 03:38:29;;;;;;;31.50;24.47;;;;;;;14.78;90.12;100719.72;5119155;28;20460;-62
2022/05/17 03:40:58;;;;;;;32.37;21.83;;;;;;;14.84;90.00;100723.63;5102740;28;20771;-62
2022/05/17 03:43:26;;;;;;;34.50;24.70;;;;;;;14.72;90.27;100717.69;5114621;28;20442;-63
2022/05/17 03:45:53;;;;;;;28.27;24.00;;;;;;;14.79;90.25;100723.25;5117597;28;20470;-62
2022/05/17 03:48:19;;;;;;;30.60;23.37;;;;;;;14.92;89.65;100729.09;5119338;28;20457;-62
2022/05/17 03:50:47;;;;;;;26.03;22.27;;;;;;;14.83;89.46;100727.34;5115120;28;20524;-62
2022/05/17 03:53:14;;;;;;;33.40;24.70;;;;;;;14.91;89.59;100727.38;5101273;28;20507;-62
2022/05/17 03:55:42;;;;;;;31.73;24.63;;;;;;;14.97;89.20;100726.78;5097848;28;20599;-63
2022/05/17 03:58:09;;;;;;;33.90;25.87;;;;;;;15.03;88.36;100731.53;5097559;28;20771;-63
2022/05/17 04:00:36;;;;;;;31.47;23.93;;;;;;;15.06;88.27;100730.38;5114460;28;20466;-63
2022/05/17 04:03:03;;;;;;;31.17;23.90;;;;;;;15.32;87.90;100726.81;5117837;28;20465;-63
2022/05/17 04:05:30;;;;;;;31.23;23.80;;;;;;;15.30;87.43;100723.44;5119300;28;20473;-63
2022/05/17 04:07:57;;;;;;;29.03;22.60;;;;;;;15.31;87.13;100715.22;5100463;28;20987;-63
2022/05/17 04:10:24;;;;;;;34.53;24.90;;;;;;;16.02;86.12;100718.53;5092836;28;20434;-63
2022/05/17 04:12:52;;;;;;;33.83;25.83;;;;;;;17.23;82.91;100728.69;5099891;28;20488;-63
2022/05/17 04:15:21;;;;;;;32.70;24.40;;;;;;;18.04;77.83;100720.50;5100613;28;20507;-62
2022/05/17 04:17:49;;;;;;;33.80;24.43;;;;;;;18.81;73.00;100727.69;5101924;28;20862;-63
2022/05/17 04:20:17;;;;;;;23.30;20.93;;;;;;;19.30;69.46;100727.22;5098906;28;20439;-63
2022/05/17 04:22:44;;;;;;;18.70;16.77;;;;;;;19.81;67.16;100728.34;5109117;28;20497;-64
2022/05/17 04:25:11;;;;;;;19.70;15.60;;;;;;;20.46;64.02;100734.75;5118271;28;20430;-63
2022/05/17 04:27:38;;;;;;;17.83;13.70;;;;;;;20.00;64.27;100732.34;5101634;28;20447;-62
2022/05/17 04:30:07;;;;;;;18.37;11.87;;;;;;;19.66;65.58;100722.94;5103924;28;20447;-63
2022/05/17 04:32:34;;;;;;;13.03;11.73;;;;;;;20.24;62.88;100732.03;5106745;28;20467;-63
2022/05/17 04:35:01;;;;;;;14.17;12.40;;;;;;;20.34;63.39;100736.28;5087030;28;20935;-63
2022/05/17 04:37:28;;;;;;;15.97;12.10;;;;;;;20.37;63.55;100739.47;5079891;28;20489;-63
2022/05/17 04:39:55;;;;;;;13.57;11.90;;;;;;;20.78;61.84;100740.69;5091675;28;20518;-63
2022/05/17 04:42:21;;;;;;;13.67;12.37;;;;;;;21.62;59.02;100748.03;5118875;28;20637;-63
2022/05/17 04:44:48;;;;;;;12.20;10.93;;;;;;;21.93;57.20;100741.25;5107288;28;20519;-64
2022/05/17 04:47:16;;;;;;;13.07;10.80;;;;;;;21.65;58.72;100753.06;5123012;27;20473;-64
2022/05/17 04:49:43;;;;;;;13.77;11.30;;;;;;;22.07;57.53;100745.72;5125275;27;20430;-64
2022/05/17 04:52:10;;;;;;;12.73;11.10;;;;;;;22.65;54.64;100753.41;5121764;28;20480;-64
2022/05/17 04:54:37;;;;;;;14.60;10.83;;;;;;;23.62;52.78;100744.75;5123206;28;20450;-64
2022/05/17 04:57:05;;;;;;;11.50;10.17;;;;;;;23.47;51.66;100751.31;5126827;27;20974;-64
2022/05/17 04:59:31;;;;;;;12.03;10.87;;;;;;;22.89;53.37;100751.94;5116361;27;20483;-64
2022/05/17 05:01:58;;;;;;;11.70;10.60;;;;;;;24.01;51.31;100760.19;5104500;27;20562;-63
2022/05/17 05:04:26;;;;;;;13.17;10.20;;;;;;;24.11;49.78;100764.31;5111790;28;20501;-64
2022/05/17 05:06:53;;;;;;;10.73;9.57;;;;;;;24.22;49.77;100769.94;5102863;28;20471;-63
2022/05/17 05:09:20;;;;;;;10.30;9.10;;;;;;;24.50;48.86;100776.09;5101390;28;20431;-64
2022/05/17 05:11:47;;;;;;;10.00;9.00;;;;;;;24.52;48.84;100773.97;5101589;28;20485;-63
2022/05/17 05:14:14;;;;;;;10.53;7.73;;;;;;;25.51;46.26;100766.88;5100764;28;20470;-68
2022/05/17 05:16:40;;;;;;;9.13;7.70;;;;;;;25.22;46.81;100771.13;5121888;28;20477;-63
2022/05/17 05:19:07;;;;;;;11.50;8.10;;;;;;;24.75;49.12;100771.53;5122236;28;20446;-64
2022/05/17 05:21:35;;;;;;;10.87;8.17;;;;;;;24.85;48.03;100767.47;5116065;28;20496;-64
2022/05/17 05:24:04;;;;;;;10.60;7.60;;;;;;;24.78;48.53;100765.63;5109807;27;20470;-65
2022/05/17 05:26:32;;;;;;;9.90;7.70;;;;;;;24.43;48.31;100776.97;5107933;28;20477;-65
2022/05/17 05:28:59;;;;;;;11.07;7.50;;;;;;;24.62;48.17;100775.19;5102988;28;20984;-63
2022/05/17 05:31:25;;;;;;;12.07;7.50;;;;;;;25.69;45.39;100785.22;5100741;28;21070;-63
2022/05/17 05:33:52;;;;;;;12.63;6.70;;;;;;;25.15;47.26;100787.63;5101349;28;20455;-65
2022/05/17 05:36:19;;;;;;;11.60;6.67;;;;;;;24.87;48.23;100781.75;5100845;28;20504;-64
2022/05/17 05:38:47;;;;;;;12.83;7.77;;;;;;;24.40;48.03;100776.56;5102252;28;20442;-67
2022/05/17 05:41:14;;;;;;;10.60;6.60;;;;;;;25.14;46.88;100785.13;5102008;28;20502;-64
2022/05/17 05:43:42;;;;;;;9.03;6.90;;;;;;;24.32;48.64;100780.41;5100771;28;20439;-65
2022/05/17 05:46:08;;;;;;;14.23;7.90;;;;;;;24.88;47.51;100778.81;5101435;28;20474;-65
2022/05/17 05:48:36;;;;;;;9.37;8.20;;;;;;;24.65;48.10;100787.59;5101583;28;20455;-64
2022/05/17 05:51:03;;;;;;;10.47;7.70;;;;;;;25.21;46.91;100793.25;5100600;28;20499;-64
2022/05/17 05:53:29;;;;;;;8.60;6.80;;;;;;;25.15;46.85;100784.03;5101646;28;20567;-63
2022/05/17 05:56:01;;;;;;;9.57;6.60;;;;;;;25.08;45.70;100775.88;5101108;28;20479;-67
2022/05/17 05:58:28;;;;;;;10.87;6.90;;;;;;;25.99;44.41;100783.63;5097832;28;20489;-65
2022/05/17 06:00:55;;;;;;;11.30;7.57;;;;;;;25.29;46.19;100784.78;5101385;28;20500;-64
2022/05/17 06:03:22;;;;;;;9.50;6.30;;;;;;;26.30;43.43;100777.97;5100723;28;20447;-64
2022/05/17 06:05:49;;;;;;;11.27;6.50;;;;;;;24.98;46.06;100784.63;5101886;28;20929;-63
2022/05/17 06:08:16;;;;;;;12.60;7.40;;;;;;;23.17;50.77;100780.91;5117443;28;20515;-64
2022/05/17 06:10:44;;;;;;;11.73;7.07;;;;;;;22.32;54.06;100778.69;5121101;28;20462;-65
2022/05/17 06:13:13;;;;;;;12.07;7.77;;;;;;;21.71;56.21;100782.19;5121181;28;20449;-64
2022/05/17 06:15:41;;;;;;;12.13;7.87;;;;;;;21.73;57.06;100782.81;5110876;28;20471;-65
2022/05/17 06:18:08;;;;;;;11.50;6.30;;;;;;;22.51;55.48;100785.25;5100920;28;20447;-64
2022/05/17 06:20:36;;;;;;;9.10;7.07;;;;;;;23.11;53.80;100784.50;5099802;28;20465;-63
2022/05/17 06:23:03;;;;;;;16.00;7.63;;;;;;;24.43;50.27;100790.63;5100363;28;20471;-63
2022/05/17 06:25:30;;;;;;;11.77;6.77;;;;;;;25.05;46.33;100789.19;5099920;28;20524;-63
2022/05/17 06:27:56;;;;;;;13.30;6.60;;;;;;;25.13;47.18;100792.47;5089640;28;20744;-63
2022/05/17 06:30:24;;;;;;;8.00;6.80;;;;;;;24.67;46.87;100790.09;5095663;28;20455;-63
2022/05/17 06:32:52;;;;;;;13.13;7.00;;;;;;;23.81;49.23;100801.19;5099763;28;20945;-63
2022/05/17 06:35:19;;;;;;;10.87;6.10;;;;;;;24.55;47.08;100792.72;5099863;28;20431;-63
2022/05/17 06:37:46;;;;;;;10.47;6.40;;;;;;;24.47;47.91;100791.03;5101096;28;20479;-63
2022/05/17 06:40:14;;;;;;;12.10;6.93;;;;;;;25.10;45.65;100795.69;5095412;28;20577;-63
2022/05/17 06:42:40;;;;;;;7.60;5.40;;;;;;;25.19;45.39;100793.50;5100035;28;20475;-63
2022/05/17 06:45:08;;;;;;;12.03;7.00;;;;;;;25.43;45.11;100790.97;5099182;28;20483;-63
2022/05/17 06:47:37;;;;;;;7.13;5.67;;;;;;;26.41;42.95;100786.47;5100197;28;20462;-63
2022/05/17 06:50:04;;;;;;;13.20;7.37;;;;;;;26.63;41.82;100790.41;5076146;28;20949;-63
2022/05/17 06:52:31;;;;;;;11.53;8.07;;;;;;;26.41;43.24;100789.22;5079718;28;20467;-64
2022/05/17 06:54:58;;;;;;;8.10;5.63;;;;;;;26.80;41.59;100785.03;5080257;28;20486;-64
2022/05/17 06:57:24;;;;;;;9.87;5.57;;;;;;;27.22;41.09;100786.88;5078673;28;20498;-64
2022/05/17 06:59:51;;;;;;;12.43;5.73;;;;;;;26.93;40.87;100791.41;5079965;28;20439;-63
2022/05/17 07:02:18;;;;;;;12.50;6.33;;;;;;;26.53;42.25;100792.84;5078586;28;20485;-64
2022/05/17 07:04:46;;;;;;;9.63;5.33;;;;;;;26.22;42.64;100804.84;5079090;28;20455;-64
2022/05/17 07:07:13;;;;;;;16.47;6.03;;;;;;;26.07;43.41;100810.72;5079600;28;20476;-63
2022/05/17 07:09:40;;;;;;;6.47;5.70;;;;;;;26.86;42.04;100810.72;5078508;28;20499;-63
2022/05/17 07:14:51;;;;;;;9.20;5.63;;;;;;;25.85;42.88;100821.28;5099869;28;20442;-63
2022/05/17 07:17:20;;;;;;;8.60;5.10;;;;;;;27.27;40.94;100813.63;5098869;28;20479;-63
2022/05/17 07:19:49;;;;;;;10.67;6.33;;;;;;;27.56;40.38;100811.88;5099320;28;20499;-63
2022/05/17 07:22:16;;;;;;;13.23;6.57;;;;;;;26.55;42.17;100809.88;5099619;28;20507;-63
2022/05/17 07:24:45;;;;;;;9.60;5.60;;;;;;;27.08;41.46;100823.88;5099845;28;20477;-63
2022/05/17 07:27:13;;;;;;;7.40;5.33;;;;;;;27.44;39.58;100822.88;5098261;28;20478;-63
2022/05/17 07:29:41;;;;;;;9.70;6.37;;;;;;;26.58;42.00;100819.53;5099588;28;20488;-63
2022/05/17 07:32:08;;;;;;;12.50;7.73;;;;;;;26.34;43.36;100826.84;5094803;28;21025;-63
2022/05/17 07:34:35;;;;;;;10.27;7.00;;;;;;;26.27;42.98;100826.94;5096553;28;20454;-63
2022/05/17 07:37:04;;;;;;;8.63;7.70;;;;;;;26.97;41.37;100829.09;5119695;28;20549;-64
2022/05/17 07:39:31;;;;;;;8.40;7.60;;;;;;;26.95;43.43;100835.91;5119137;28;20473;-64
2022/05/17 07:41:58;;;;;;;10.60;7.87;;;;;;;26.52;43.57;100829.53;5117433;28;20916;-63
2022/05/17 07:44:25;;;;;;;7.90;6.43;;;;;;;27.94;39.35;100827.84;5121017;28;20442;-63
2022/05/17 07:46:51;;;;;;;9.97;6.43;;;;;;;26.15;42.66;100837.81;5120899;28;20474;-63
2022/05/17 07:49:18;;;;;;;9.17;6.50;;;;;;;27.12;40.84;100828.66;5119779;28;20449;-63
2022/05/17 07:51:45;;;;;;;10.33;6.03;;;;;;;26.06;42.89;100831.00;5120471;28;20553;-63
2022/05/17 07:54:13;;;;;;;10.33;6.23;;;;;;;25.86;45.27;100834.75;5121129;28;20479;-63
2022/05/17 07:56:40;;;;;;;9.73;7.20;;;;;;;24.87;46.61;100831.00;5113883;28;20493;-63
2022/05/17 07:59:06;;;;;;;6.57;5.17;;;;;;;24.53;48.48;100830.31;5100554;28;20452;-63
2022/05/17 08:01:33;;;;;;;6.90;5.10;;;;;;;25.70;44.20;100838.09;5100129;28;20475;-63
2022/05/17 08:04:00;;;;;;;7.37;5.90;;;;;;;26.06;44.91;100842.78;5106068;28;20814;-63
2022/05/17 08:06:27;;;;;;;8.50;4.60;;;;;;;27.55;41.67;100835.78;5119789;28;20477;-63
2022/05/17 08:08:53;;;;;;;12.20;5.00;;;;;;;26.80;42.09;100830.84;5120930;28;20430;-63
2022/05/17 08:11:23;;;;;;;6.93;4.40;;;;;;;26.78;42.32;100831.09;5119792;28;20523;-63
2022/05/17 08:13:50;;;;;;;5.60;3.77;;;;;;;26.80;41.94;100833.59;5120155;28;20536;-63
2022/05/17 08:16:17;;;;;;;7.13;4.00;;;;;;;27.01;39.92;100832.22;5120639;28;20473;-63
2022/05/17 08:18:44;;;;;;;7.27;4.13;;;;;;;26.72;41.92;100847.63;5119763;28;20485;-63
2022/05/17 08:21:11;;;;;;;6.23;3.87;;;;;;;27.08;39.42;100845.84;5121573;28;20470;-63
2022/05/17 08:23:38;;;;;;;8.00;4.60;;;;;;;26.49;40.41;100849.19;5124946;28;20482;-63
2022/05/17 08:28:51;;;;;;;7.90;3.57;;;;;;;25.96;41.51;100845.22;5119173;28;20553;-63
2022/05/17 08:31:18;;;;;;;5.67;3.57;;;;;;;25.43;41.96;100845.72;5122833;28;20480;-63
2022/05/17 08:33:43;;;;;;;7.60;4.00;;;;;;;25.64;43.34;100856.28;5121830;28;20487;-63
2022/05/17 08:36:11;;;;;;;6.97;4.63;;;;;;;25.89;42.19;100849.91;5123223;28;20469;-63
2022/05/17 08:38:42;;;;;;;8.60;4.27;;;;;;;25.68;42.50;100856.66;5122590;28;20263;-63
2022/05/17 08:41:13;;;;;;;9.80;5.00;;;;;;;23.71;46.74;100854.53;5108202;28;20474;-63
2022/05/17 08:43:50;;;;;;;9.17;5.03;;;;;;;25.57;43.92;100863.69;5123047;28;20477;-63
2022/05/17 08:46:40;;;;;;;4.53;4.13;;;;;;;25.90;41.80;100868.84;5122871;28;20480;-63
2022/05/17 08:49:19;;;;;;;6.17;3.87;;;;;;;27.43;39.74;100860.47;5123059;28;20481;-63
2022/05/17 08:51:48;;;;;;;6.20;4.83;;;;;;;28.76;36.60;100866.38;5122827;28;20508;-63
2022/05/17 08:54:17;;;;;;;5.17;4.60;;;;;;;29.58;34.48;100862.25;5122877;28;21025;-64
2022/05/17 08:56:49;;;;;;;6.70;4.40;;;;;;;28.99;35.42;100865.41;5117200;28;20470;-64
2022/05/17 08:59:20;;;;;;;7.90;6.00;;;;;;;27.63;37.55;100862.03;5102881;28;20442;-64
2022/05/17 09:01:48;;;;;;;8.13;5.20;;;;;;;27.68;37.56;100862.16;5101169;28;20534;-65
2022/05/17 09:04:36;;;;;;;6.90;4.70;;;;;;;28.91;36.61;100861.97;5101851;28;20435;-64
2022/05/17 09:07:11;;;;;;;4.27;2.63;;;;;;;29.96;30.43;100864.19;5101930;28;21051;-64
2022/05/17 09:09:43;;;;;;;5.10;2.47;;;;;;;29.29;31.62;100870.63;5102179;28;20454;-64
2022/05/17 09:12:16;;;;;;;5.57;2.20;;;;;;;27.26;33.96;100870.47;5101641;28;20516;-63
2022/05/17 09:14:47;;;;;;;4.37;2.33;;;;;;;30.19;31.12;100873.31;5102152;28;20454;-64
2022/05/17 09:17:16;;;;;;;8.30;3.00;;;;;;;30.69;29.92;100880.56;5101215;28;20474;-64
2022/05/17 09:19:43;;;;;;;5.50;2.47;;;;;;;29.13;32.55;100876.91;5102698;28;20477;-65
2022/05/17 09:22:10;;;;;;;6.23;2.87;;;;;;;28.01;34.94;100870.88;5102271;28;20669;-64
2022/05/17 09:24:40;;;;;;;5.70;3.00;;;;;;;29.29;32.63;100874.22;5103854;28;20706;-64
2022/05/17 09:27:08;;;;;;;4.97;2.97;;;;;;;29.87;32.14;100875.94;5121998;28;20477;-64
2022/05/17 09:29:37;;;;;;;8.07;3.97;;;;;;;30.71;30.28;100874.78;5122562;28;20422;-63
2022/05/17 09:32:11;;;;;;;4.53;3.10;;;;;;;31.38;29.05;100867.97;5120480;28;21054;-64
2022/05/17 09:34:39;;;;;;;6.13;3.80;;;;;;;29.61;32.41;100872.78;5115341;28;20447;-64
2022/05/17 09:37:10;;;;;;;6.07;3.63;;;;;;;29.08;34.58;100875.75;5101003;28;20858;-63
2022/05/17 09:39:36;;;;;;;7.90;3.90;;;;;;;29.61;34.22;100876.34;5101637;28;20516;-63
2022/05/17 09:42:05;;;;;;;6.50;4.00;;;;;;;30.39;32.96;100868.09;5100973;28;20478;-64
2022/05/17 09:44:33;;;;;;;7.80;4.53;;;;;;;29.96;32.90;100877.16;5109590;27;20469;-64
2022/05/17 09:47:01;;;;;;;7.80;4.80;;;;;;;29.62;34.01;100877.22;5121419;28;20560;-64
2022/05/17 09:52:38;;;;;;;7.83;5.03;;;;;;;31.19;32.38;100883.28;5122076;28;20548;-63
2022/05/17 09:55:27;;;;;;;6.10;4.70;;;;;;;29.04;35.13;100876.50;5121945;28;20883;-64
2022/05/17 09:57:57;;;;;;;5.87;4.40;;;;;;;28.29;36.05;100878.34;5108188;28;20994;-64
2022/05/17 10:00:26;;;;;;;6.20;4.97;;;;;;;28.31;36.59;100877.00;5121474;28;20452;-64
2022/05/17 10:02:57;;;;;;;7.30;4.90;;;;;;;27.67;38.02;100878.88;5120690;28;20490;-63
2022/05/17 10:05:28;;;;;;;8.80;5.17;;;;;;;27.11;38.95;100876.38;5120893;28;20450;-64
2022/05/17 10:07:59;;;;;;;7.37;5.50;;;;;;;27.71;37.64;100867.16;5121586;28;20530;-63
2022/05/17 10:10:29;;;;;;;6.27;5.00;;;;;;;28.86;35.55;100867.38;5121059;28;20623;-63
2022/05/17 10:13:00;;;;;;;23.93;7.80;;;;;;;29.88;34.98;100872.06;5121783;28;20427;-63
2022/05/17 10:15:29;;;;;;;9.27;5.67;;;;;;;29.99;33.64;100876.66;5120107;28;20489;-64
2022/05/17 10:17:59;;;;;;;6.73;5.60;;;;;;;29.09;33.99;100871.91;5120644;28;20552;-64
2022/05/17 10:20:32;;;;;;;8.90;5.47;;;;;;;28.42;36.05;100878.06;5121251;28;20487;-63
2022/05/17 10:23:01;;;;;;;8.30;5.00;;;;;;;26.44;40.55;100865.50;5121177;28;20462;-64
2022/05/17 10:25:31;;;;;;;7.53;5.97;;;;;;;26.74;40.61;100870.22;5117069;28;20903;-63
2022/05/17 10:28:03;;;;;;;9.23;6.10;;;;;;;26.89;39.69;100870.63;5121065;28;20479;-63
2022/05/17 10:30:40;;;;;;;7.43;6.10;;;;;;;26.95;41.30;100866.09;5120532;28;20481;-63
2022/05/17 10:33:11;;;;;;;7.40;6.33;;;;;;;25.82;42.23;100868.31;5120745;28;20480;-62
2022/05/17 10:35:42;;;;;;;7.53;5.77;;;;;;;26.92;40.58;100861.91;5120569;28;20486;-63
2022/05/17 10:38:11;;;;;;;10.20;6.20;;;;;;;27.78;39.47;100859.63;5120401;28;20450;-63
2022/05/17 10:40:43;;;;;;;7.77;4.97;;;;;;;28.23;38.70;100868.31;5114012;28;20463;-63
2022/05/17 10:43:12;;;;;;;9.13;6.20;;;;;;;28.17;38.67;100859.97;5100936;28;20482;-63
2022/05/17 10:45:39;;;;;;;7.30;5.13;;;;;;;28.35;40.04;100864.47;5098230;28;20512;-63
2022/05/17 10:48:33;;;;;;;8.40;4.57;;;;;;;29.41;34.99;100865.88;5097256;28;20455;-63
2022/05/17 10:51:06;;;;;;;6.37;4.47;;;;;;;27.51;39.14;100856.53;5100458;28;21098;-63
2022/05/17 10:53:45;;;;;;;8.60;4.97;;;;;;;27.86;37.95;100858.41;5099747;28;20435;-63
2022/05/17 10:56:22;;;;;;;8.33;5.73;;;;;;;28.21;37.59;100864.97;5099897;28;21050;-63
2022/05/17 10:58:55;;;;;;;7.23;5.40;;;;;;;27.94;38.71;100866.34;5100735;28;20451;-63
2022/05/17 11:01:27;;;;;;;7.10;4.97;;;;;;;28.37;38.62;100864.22;5099234;28;20463;-63
2022/05/17 11:04:20;;;;;;;9.87;5.60;;;;;;;28.99;35.66;100854.38;5098976;28;20490;-63
2022/05/17 11:06:59;;;;;;;7.47;5.40;;;;;;;29.08;36.10;100855.66;5099799;28;20627;-63
2022/05/17 11:09:32;;;;;;;7.97;5.20;;;;;;;27.27;39.21;100857.56;5099566;28;20510;-63
2022/05/17 11:12:05;;;;;;;7.70;5.33;;;;;;;28.39;37.61;100852.97;5100132;28;20542;-63
2022/05/17 11:14:37;;;;;;;6.90;4.77;;;;;;;28.90;36.39;100848.44;5098854;28;20643;-63
2022/05/17 11:17:11;;;;;;;13.20;5.47;;;;;;;29.26;36.14;100844.41;5099207;28;20490;-63
2022/05/17 11:19:40;;;;;;;7.10;5.17;;;;;;;28.16;37.36;100852.78;5094495;28;20458;-63
2022/05/17 11:22:13;;;;;;;6.70;4.60;;;;;;;27.03;40.23;100850.13;5078479;28;20499;-63
2022/05/17 11:24:57;;;;;;;11.00;5.80;;;;;;;29.44;35.62;100851.59;5081440;28;20543;-64
2022/05/17 11:27:43;;;;;;;7.83;4.37;;;;;;;30.23;34.64;100849.66;5099280;28;20485;-64
2022/05/17 11:30:20;;;;;;;8.30;4.60;;;;;;;28.35;36.43;100844.38;5098036;28;20967;-64
2022/05/17 11:33:10;;;;;;;13.23;6.43;;;;;;;27.76;38.11;100841.75;5099003;28;20702;-63
2022/05/17 11:35:40;;;;;;;7.73;3.37;;;;;;;28.27;35.96;100842.84;5098960;28;20466;-63